createdAt,value
2022-10-24T00:00:13.625Z,2.00
2022-10-24T00:02:59.957Z,2.55
2022-10-24T00:05:47.187Z,2.00
2022-10-24T00:08:33.287Z,1.90
2022-10-24T00:11:22.196Z,1.60
2022-10-24T00:14:07.595Z,1.60
2022-10-24T00:16:53.850Z,1.55
2022-10-24T00:19:39.343Z,3.15
2022-10-24T00:22:24.843Z,1.77
2022-10-24T00:25:10.678Z,1.70
2022-10-24T00:27:56.174Z,1.90
2022-10-24T00:30:41.836Z,1.60
2022-10-24T00:33:27.813Z,1.30
2022-10-24T00:36:16.896Z,1.65
2022-10-24T00:39:03.446Z,1.70
2022-10-24T00:41:49.497Z,1.42
2022-10-24T00:44:39.504Z,1.63
2022-10-24T00:47:27.326Z,1.58
2022-10-24T00:50:15.189Z,1.80
2022-10-24T00:53:00.980Z,1.50
2022-10-24T00:55:50.564Z,1.20
2022-10-24T00:58:38.044Z,1.50
2022-10-24T01:01:25.708Z,1.60
2022-10-24T01:04:13.627Z,1.70
2022-10-24T01:07:15.090Z,1.40
2022-10-24T01:10:20.989Z,1.40
2022-10-24T01:13:24.811Z,1.90
2022-10-24T01:16:21.998Z,1.60
2022-10-24T01:19:26.171Z,1.90
2022-10-24T01:22:24.604Z,1.42
2022-10-24T01:25:16.789Z,1.60
2022-10-24T01:28:18.729Z,1.60
2022-10-24T01:31:20.549Z,1.38
2022-10-24T01:34:17.550Z,1.40
2022-10-24T01:37:28.699Z,1.50
2022-10-24T01:40:20.886Z,1.50
2022-10-24T01:43:13.025Z,1.45
2022-10-24T01:46:03.114Z,1.33
2022-10-24T01:48:55.423Z,2.10
2022-10-24T01:51:42.208Z,1.35
2022-10-24T01:54:29.918Z,1.70
2022-10-24T01:57:16.298Z,1.60
2022-10-24T02:00:02.611Z,1.45
2022-10-24T02:03:06.308Z,1.42
2022-10-24T02:05:56.770Z,1.27
2022-10-24T02:08:46.839Z,1.98
2022-10-24T02:11:34.961Z,1.35
2022-10-24T02:14:34.029Z,2.22
2022-10-24T02:17:19.871Z,1.88
2022-10-24T02:20:06.783Z,1.70
2022-10-24T02:23:00.944Z,2.20
2022-10-24T02:25:51.021Z,2.38
2022-10-24T02:28:42.497Z,2.38
2022-10-24T02:31:33.225Z,2.40
2022-10-24T02:34:21.616Z,1.88
2022-10-24T02:37:09.159Z,3.38
2022-10-24T02:39:57.548Z,3.40
2022-10-24T02:42:46.325Z,1.92
2022-10-24T02:45:34.007Z,1.83
2022-10-24T02:48:24.162Z,2.20
2022-10-24T02:51:10.218Z,2.00
2022-10-24T02:53:56.656Z,1.83
2022-10-24T02:56:53.220Z,1.90
2022-10-24T02:59:39.467Z,2.70
2022-10-24T03:02:25.505Z,2.08
2022-10-24T03:05:11.265Z,2.15
2022-10-24T03:07:56.641Z,2.05
2022-10-24T03:10:42.188Z,2.50
2022-10-24T03:13:28.027Z,2.42
2022-10-24T03:16:14.319Z,2.58
2022-10-24T03:19:00.024Z,2.00
2022-10-24T03:21:45.781Z,1.92
2022-10-24T03:24:43.634Z,2.00
2022-10-24T03:27:30.705Z,2.20
2022-10-24T03:30:16.856Z,1.98
2022-10-24T03:33:02.559Z,2.55
2022-10-24T03:35:52.687Z,2.40
2022-10-24T03:38:38.334Z,1.90
2022-10-24T03:41:23.757Z,1.90
2022-10-24T03:44:09.445Z,1.98
2022-10-24T03:46:55.025Z,2.13
2022-10-24T03:49:40.556Z,2.10
2022-10-24T03:52:26.494Z,1.92
2022-10-24T03:55:12.808Z,2.28
2022-10-24T03:57:59.097Z,1.88
2022-10-24T04:00:44.935Z,2.10
2022-10-24T04:03:30.375Z,2.30
2022-10-24T04:06:16.016Z,2.45
2022-10-24T04:09:01.536Z,2.47
2022-10-24T04:11:48.365Z,2.30
2022-10-24T04:14:33.937Z,1.90
2022-10-24T04:17:19.588Z,2.63
2022-10-24T04:20:05.957Z,1.95
2022-10-24T04:22:51.778Z,1.88
2022-10-24T04:25:37.272Z,2.00
2022-10-24T04:28:22.868Z,1.92
2022-10-24T04:31:08.491Z,2.05
2022-10-24T04:33:54.122Z,2.25
2022-10-24T04:36:39.715Z,1.98
2022-10-24T04:39:25.217Z,1.92
2022-10-24T04:42:10.843Z,2.20
2022-10-24T04:44:56.280Z,2.00
2022-10-24T04:47:41.970Z,1.95
2022-10-24T04:50:27.956Z,2.13
2022-10-24T04:53:14.238Z,2.33
2022-10-24T04:56:00.149Z,3.25
2022-10-24T04:58:45.607Z,1.83
2022-10-24T05:01:31.210Z,1.67
2022-10-24T05:04:16.772Z,1.75
2022-10-24T05:07:02.016Z,2.22
2022-10-24T05:09:48.001Z,1.63
2022-10-24T05:12:33.409Z,1.80
2022-10-24T05:15:19.079Z,1.52
2022-10-24T05:18:04.814Z,1.60
2022-10-24T05:20:50.360Z,1.60
2022-10-24T05:23:36.161Z,1.45
2022-10-24T05:26:21.604Z,1.65
2022-10-24T05:31:53.248Z,1.40
2022-10-24T05:34:38.609Z,1.60
2022-10-24T05:37:24.491Z,1.65
2022-10-24T05:40:11.961Z,1.95
2022-10-24T05:42:57.866Z,1.27
2022-10-24T05:45:43.794Z,1.60
2022-10-24T05:48:29.553Z,2.03
2022-10-24T05:51:14.959Z,1.73
2022-10-24T05:54:00.685Z,1.20
2022-10-24T05:56:46.202Z,1.70
2022-10-24T05:59:31.981Z,1.30
2022-10-24T06:02:20.283Z,1.55
2022-10-24T06:05:06.982Z,2.30
2022-10-24T06:07:52.539Z,3.78
2022-10-24T06:10:38.581Z,2.30
2022-10-24T06:13:24.243Z,1.83
2022-10-24T06:16:11.941Z,1.70
2022-10-24T06:18:58.110Z,1.58
2022-10-24T06:21:43.922Z,1.88
2022-10-24T06:24:29.319Z,1.80
2022-10-24T06:27:14.919Z,1.70
2022-10-24T06:30:00.650Z,1.90
2022-10-24T06:32:46.555Z,1.80
2022-10-24T06:35:32.139Z,1.70
2022-10-24T06:38:17.768Z,1.88
2022-10-24T06:41:09.138Z,2.13
2022-10-24T06:43:56.515Z,2.60
2022-10-24T06:46:42.335Z,2.40
2022-10-24T06:49:27.991Z,2.10
2022-10-24T06:52:13.462Z,2.30
2022-10-24T06:54:59.089Z,1.80
2022-10-24T06:57:44.833Z,1.60
2022-10-24T07:00:30.608Z,1.80
2022-10-24T07:03:16.947Z,1.73
2022-10-24T07:06:18.013Z,1.75
2022-10-24T07:09:05.726Z,2.50
2022-10-24T07:11:53.534Z,2.70
2022-10-24T07:14:39.427Z,3.03
2022-10-24T07:17:25.252Z,1.98
2022-10-24T07:20:12.424Z,1.80
2022-10-24T07:22:58.054Z,1.83
2022-10-24T07:25:44.930Z,2.10
2022-10-24T07:28:30.789Z,1.77
2022-10-24T07:31:22.048Z,1.88
2022-10-24T07:34:10.051Z,3.35
2022-10-24T07:36:55.676Z,1.70
2022-10-24T07:39:41.038Z,1.85
2022-10-24T07:42:26.830Z,1.90
2022-10-24T07:45:12.779Z,2.15
2022-10-24T07:48:00.305Z,2.45
2022-10-24T07:50:47.582Z,1.83
2022-10-24T07:53:33.218Z,2.30
2022-10-24T07:56:19.156Z,1.90
2022-10-24T07:59:09.512Z,2.13
2022-10-24T08:01:59.557Z,3.08
2022-10-24T08:04:45.375Z,2.67
2022-10-24T08:07:31.247Z,2.63
2022-10-24T08:10:17.438Z,2.08
2022-10-24T08:13:04.029Z,2.38
2022-10-24T08:15:49.871Z,2.30
2022-10-24T08:18:39.437Z,2.30
2022-10-24T08:21:26.469Z,3.90
2022-10-24T08:24:12.118Z,3.45
2022-10-24T08:26:57.912Z,3.45
2022-10-24T08:29:43.625Z,2.17
2022-10-24T08:32:29.046Z,1.98
2022-10-24T08:35:19.978Z,2.03
2022-10-24T08:38:05.438Z,2.13
2022-10-24T08:40:51.077Z,1.90
2022-10-24T08:43:36.778Z,2.10
2022-10-24T08:46:31.103Z,2.20
2022-10-24T08:49:46.442Z,2.08
2022-10-24T08:52:40.798Z,2.75
2022-10-24T08:55:49.201Z,2.40
2022-10-24T08:58:44.310Z,2.70
2022-10-24T09:01:52.643Z,3.35
2022-10-24T09:04:51.490Z,2.55
2022-10-24T09:07:38.113Z,1.88
2022-10-24T09:10:52.218Z,2.05
2022-10-24T09:13:38.664Z,2.00
2022-10-24T09:16:25.462Z,2.20
2022-10-24T09:19:18.499Z,2.30
2022-10-24T09:22:04.491Z,2.40
2022-10-24T09:24:59.244Z,2.05
2022-10-24T09:27:45.195Z,2.55
2022-10-24T09:30:33.503Z,2.13
2022-10-24T09:33:31.518Z,1.90
2022-10-24T09:36:20.529Z,2.10
2022-10-24T09:39:29.573Z,2.00
2022-10-24T09:42:24.165Z,1.60
2022-10-24T09:45:27.868Z,1.87
2022-10-24T09:48:30.109Z,1.90
2022-10-24T09:51:41.826Z,1.90
2022-10-24T09:54:30.152Z,1.75
2022-10-24T09:57:18.147Z,2.03
2022-10-24T10:00:05.183Z,1.88
2022-10-24T10:03:23.599Z,1.70
2022-10-24T10:06:19.197Z,2.05
2022-10-24T10:09:13.867Z,1.90
2022-10-24T10:12:03.312Z,1.50
2022-10-24T10:14:49.078Z,1.70
2022-10-24T10:17:34.801Z,1.45
2022-10-24T10:20:41.302Z,1.40
2022-10-24T10:23:33.284Z,1.70
2022-10-24T10:26:27.529Z,1.20
2022-10-24T10:29:19.583Z,1.20
2022-10-24T10:32:23.088Z,1.00
2022-10-24T10:35:43.575Z,1.10
2022-10-24T10:38:40.719Z,1.40
2022-10-24T10:44:52.656Z,1.00
2022-10-24T10:48:16.486Z,1.10
2022-10-24T10:51:08.593Z,1.20
2022-10-24T10:54:06.364Z,1.10
2022-10-24T10:57:02.944Z,1.10
2022-10-24T11:00:00.141Z,0.90
2022-10-24T11:03:17.129Z,1.00
2022-10-24T11:06:26.604Z,1.42
2022-10-24T11:09:23.142Z,1.17
2022-10-24T11:12:14.488Z,1.20
2022-10-24T11:15:07.056Z,1.10
2022-10-24T11:18:06.377Z,0.93
2022-10-24T11:21:02.215Z,1.20
2022-10-24T11:23:55.844Z,1.20
2022-10-24T11:26:48.622Z,0.88
2022-10-24T11:29:40.834Z,1.00
2022-10-24T11:32:47.766Z,1.02
2022-10-24T11:35:37.401Z,1.30
2022-10-24T11:38:24.769Z,1.50
2022-10-24T11:41:49.292Z,0.98
2022-10-24T11:44:59.050Z,0.93
2022-10-24T11:47:58.642Z,0.98
2022-10-24T11:50:50.381Z,1.10
2022-10-24T11:53:35.846Z,0.95
2022-10-24T11:56:46.802Z,1.02
2022-10-24T11:59:32.543Z,0.80
2022-10-24T12:02:48.621Z,1.20
2022-10-24T12:08:52.149Z,0.85
2022-10-24T12:12:02.723Z,0.90
2022-10-24T12:15:06.583Z,0.82
2022-10-24T12:18:09.269Z,1.15
2022-10-24T12:20:57.452Z,1.00
2022-10-24T12:23:52.658Z,0.80
2022-10-24T12:26:38.719Z,0.60
2022-10-24T12:29:27.348Z,0.90
2022-10-24T12:32:25.429Z,0.90
2022-10-24T12:35:35.211Z,1.10
2022-10-24T12:38:29.891Z,0.88
2022-10-24T12:41:33.354Z,0.90
2022-10-24T12:44:34.048Z,1.08
2022-10-24T12:47:32.946Z,1.15
2022-10-24T12:50:21.833Z,1.05
2022-10-24T12:53:30.067Z,0.80
2022-10-24T12:56:21.328Z,0.90
2022-10-24T12:59:33.730Z,1.20
2022-10-24T13:02:49.204Z,0.90
2022-10-24T13:05:34.433Z,1.35
2022-10-24T13:08:57.856Z,0.70
2022-10-24T13:12:03.289Z,0.60
2022-10-24T13:14:51.802Z,0.80
2022-10-24T13:18:16.038Z,0.80
2022-10-24T13:21:26.957Z,0.88
2022-10-24T13:24:15.395Z,1.10
2022-10-24T13:27:04.136Z,0.80
2022-10-24T13:29:49.725Z,0.70
2022-10-24T13:32:36.207Z,0.80
2022-10-24T13:35:25.319Z,0.88
2022-10-24T13:38:14.517Z,1.33
2022-10-24T13:41:00.283Z,0.90
2022-10-24T13:43:51.832Z,0.90
2022-10-24T13:46:46.844Z,0.90
2022-10-24T13:49:38.262Z,1.10
2022-10-24T13:52:33.228Z,1.00
2022-10-24T13:58:13.201Z,1.73
2022-10-24T14:01:22.962Z,1.60
2022-10-24T14:04:08.932Z,1.20
2022-10-24T14:07:10.085Z,1.25
2022-10-24T14:10:08.646Z,1.30
2022-10-24T14:12:57.262Z,1.40
2022-10-24T14:15:49.064Z,1.10
2022-10-24T14:18:37.049Z,1.05
2022-10-24T14:21:22.971Z,1.00
2022-10-24T14:24:15.590Z,1.35
2022-10-24T14:27:02.251Z,1.10
2022-10-24T14:29:57.895Z,1.33
2022-10-24T14:32:43.726Z,1.20
2022-10-24T14:35:29.228Z,1.10
2022-10-24T14:38:17.634Z,0.82
2022-10-24T14:41:10.453Z,1.00
2022-10-24T14:43:58.999Z,0.82
2022-10-24T14:46:46.874Z,1.27
2022-10-24T14:49:36.972Z,1.00
2022-10-24T14:52:37.252Z,0.90
2022-10-24T14:55:23.046Z,0.95
2022-10-24T14:58:22.729Z,1.35
2022-10-24T15:01:19.896Z,1.40
2022-10-24T15:04:06.480Z,1.00
2022-10-24T15:06:56.387Z,1.20
2022-10-24T15:09:56.447Z,1.10
2022-10-24T15:13:07.128Z,1.13
2022-10-24T15:15:55.265Z,1.33
2022-10-24T15:18:43.943Z,1.48
2022-10-24T15:21:35.857Z,1.40
2022-10-24T15:24:26.819Z,1.10
2022-10-24T15:27:13.221Z,1.13
2022-10-24T15:29:59.005Z,1.40
2022-10-24T15:32:44.849Z,1.30
2022-10-24T15:35:35.731Z,1.33
2022-10-24T15:38:21.472Z,1.30
2022-10-24T15:41:06.973Z,1.30
2022-10-24T15:43:53.248Z,1.30
2022-10-24T15:46:38.730Z,1.27
2022-10-24T15:49:24.443Z,1.27
2022-10-24T15:52:15.290Z,1.55
2022-10-24T15:55:00.761Z,1.23
2022-10-24T15:57:46.879Z,1.50
2022-10-24T16:00:33.075Z,1.98
2022-10-24T16:03:22.697Z,1.92
2022-10-24T16:06:08.116Z,1.67
2022-10-24T16:08:54.782Z,1.52
2022-10-24T16:11:40.801Z,1.58
2022-10-24T16:14:26.511Z,1.95
2022-10-24T16:17:11.872Z,2.50
2022-10-24T16:19:57.402Z,2.50
2022-10-24T16:22:43.401Z,2.65
2022-10-24T16:25:32.923Z,1.55
2022-10-24T16:28:22.862Z,2.40
2022-10-24T16:31:09.608Z,1.70
2022-10-24T16:33:55.380Z,1.67
2022-10-24T16:36:41.091Z,1.73
2022-10-24T16:39:26.596Z,1.63
2022-10-24T16:42:12.209Z,5.95
2022-10-24T16:44:57.792Z,6.15
2022-10-24T16:47:43.521Z,4.40
2022-10-24T16:50:30.767Z,3.70
2022-10-24T16:53:18.319Z,3.38
2022-10-24T16:56:04.166Z,3.17
2022-10-24T16:58:49.445Z,2.97
2022-10-24T17:01:35.024Z,2.65
2022-10-24T17:04:20.410Z,3.00
2022-10-24T17:07:06.208Z,2.65
2022-10-24T17:09:51.967Z,1.77
2022-10-24T17:12:38.320Z,1.73
2022-10-24T17:15:23.832Z,1.90
2022-10-24T17:18:09.516Z,1.98
2022-10-24T17:21:00.371Z,1.80
2022-10-24T17:23:46.220Z,2.25
2022-10-24T17:26:31.671Z,2.40
2022-10-24T17:29:30.712Z,2.20
2022-10-24T17:32:17.060Z,2.30
2022-10-24T17:35:02.727Z,2.50
2022-10-24T17:37:51.346Z,2.28
2022-10-24T17:40:43.237Z,1.92
2022-10-24T17:43:29.327Z,1.80
2022-10-24T17:46:15.447Z,2.20
2022-10-24T17:49:01.058Z,1.80
2022-10-24T17:51:47.453Z,2.17
2022-10-24T17:54:34.409Z,1.90
2022-10-24T17:57:21.131Z,2.10
2022-10-24T18:00:08.621Z,2.20
2022-10-24T18:02:54.772Z,1.88
2022-10-24T18:05:40.707Z,7.07
2022-10-24T18:08:26.765Z,9.00
2022-10-24T18:11:14.469Z,7.43
2022-10-24T18:13:59.949Z,9.65
2022-10-24T18:16:45.559Z,10.32
2022-10-24T18:19:31.128Z,7.15
2022-10-24T18:22:16.701Z,6.85
2022-10-24T18:25:02.664Z,14.55
2022-10-24T18:27:48.390Z,7.18
2022-10-24T18:30:35.571Z,7.43
2022-10-24T18:33:21.181Z,4.72
2022-10-24T18:36:15.966Z,6.43
2022-10-24T18:39:01.770Z,7.07
2022-10-24T18:41:53.461Z,6.78
2022-10-24T18:44:39.621Z,2.88
2022-10-24T18:47:26.345Z,3.00
2022-10-24T18:50:18.304Z,3.33
2022-10-24T18:53:08.279Z,2.75
2022-10-24T18:55:54.127Z,3.35
2022-10-24T18:58:41.806Z,1.85
2022-10-24T19:01:39.396Z,2.70
2022-10-24T19:04:26.419Z,4.00
2022-10-24T19:07:11.959Z,3.20
2022-10-24T19:09:57.605Z,2.50
2022-10-24T19:12:43.630Z,2.25
2022-10-24T19:15:29.805Z,8.90
2022-10-24T19:18:17.151Z,4.60
2022-10-24T19:21:05.243Z,2.72
2022-10-24T19:23:51.512Z,1.80
2022-10-24T19:26:37.584Z,1.77
2022-10-24T19:29:23.643Z,1.85
2022-10-24T19:32:09.117Z,1.40
2022-10-24T19:34:55.576Z,1.60
2022-10-24T19:37:41.918Z,1.58
2022-10-24T19:40:27.341Z,1.60
2022-10-24T19:43:13.574Z,1.80
2022-10-24T19:46:19.383Z,1.83
2022-10-24T19:49:05.610Z,1.80
2022-10-24T19:51:52.826Z,2.28
2022-10-24T19:54:38.654Z,3.05
2022-10-24T19:57:24.136Z,2.22
2022-10-24T20:00:10.365Z,1.60
2022-10-24T20:02:56.188Z,2.10
2022-10-24T20:05:42.604Z,1.75
2022-10-24T20:08:28.531Z,1.70
2022-10-24T20:11:15.595Z,1.92
2022-10-24T20:14:01.135Z,1.75
2022-10-24T20:16:46.679Z,1.50
2022-10-24T20:19:32.098Z,2.13
2022-10-24T20:22:17.580Z,2.72
2022-10-24T20:25:03.285Z,2.38
2022-10-24T20:27:49.005Z,2.55
2022-10-24T20:30:46.662Z,1.80
2022-10-24T20:33:32.473Z,1.13
2022-10-24T20:36:18.920Z,0.90
2022-10-24T20:39:06.349Z,1.30
2022-10-24T20:41:54.058Z,1.00
2022-10-24T20:44:39.678Z,1.00
2022-10-24T20:47:25.065Z,0.80
2022-10-24T20:50:11.088Z,0.82
2022-10-24T20:52:56.771Z,1.10
2022-10-24T20:55:44.960Z,1.00
2022-10-24T20:58:30.502Z,1.15
2022-10-24T21:01:21.888Z,0.73
2022-10-24T21:04:07.106Z,0.70
2022-10-24T21:06:52.983Z,0.93
2022-10-24T21:09:38.940Z,0.80
2022-10-24T21:12:24.584Z,1.00
2022-10-24T21:15:10.313Z,0.77
2022-10-24T21:17:55.886Z,1.10
2022-10-24T21:20:41.307Z,1.08
2022-10-24T21:23:26.912Z,0.98
2022-10-24T21:26:14.078Z,0.98
2022-10-24T21:29:09.381Z,0.95
2022-10-24T21:32:05.208Z,0.90
2022-10-24T21:34:51.032Z,1.00
2022-10-24T21:37:36.548Z,1.00
2022-10-24T21:40:22.331Z,1.20
2022-10-24T21:43:07.845Z,1.10
2022-10-24T21:45:53.166Z,1.20
2022-10-24T21:48:40.711Z,1.85
2022-10-24T21:51:28.797Z,1.70
2022-10-24T21:54:22.806Z,1.70
2022-10-24T21:57:08.365Z,1.70
2022-10-24T21:59:53.770Z,1.50
2022-10-24T22:02:39.389Z,1.65
2022-10-24T22:05:24.832Z,1.90
2022-10-24T22:08:10.223Z,1.50
2022-10-24T22:10:58.071Z,1.90
2022-10-24T22:13:44.167Z,1.50
2022-10-24T22:16:32.057Z,1.63
2022-10-24T22:19:17.584Z,1.67
2022-10-24T22:22:03.697Z,1.77
2022-10-24T22:24:49.345Z,1.90
2022-10-24T22:27:35.028Z,2.00
2022-10-24T22:30:20.721Z,8.65
2022-10-24T22:33:07.075Z,7.32
2022-10-24T22:35:58.850Z,3.08
2022-10-24T22:38:44.483Z,2.17
2022-10-24T22:41:30.216Z,1.92
2022-10-24T22:44:20.530Z,1.52
2022-10-24T22:47:27.979Z,1.30
2022-10-24T22:50:28.221Z,1.38
2022-10-24T22:53:15.465Z,1.20
2022-10-24T22:56:15.977Z,1.20
2022-10-24T22:59:01.881Z,1.10
2022-10-24T23:02:05.536Z,1.13
2022-10-24T23:05:30.096Z,1.15
2022-10-24T23:08:34.079Z,1.00
2022-10-24T23:11:19.913Z,0.90
2022-10-24T23:14:05.649Z,0.90
2022-10-24T23:16:59.347Z,0.85
2022-10-24T23:19:46.802Z,1.00
2022-10-24T23:22:33.379Z,1.00
2022-10-24T23:25:19.460Z,0.90
2022-10-24T23:28:18.540Z,1.10
2022-10-24T23:33:49.574Z,1.30
2022-10-24T23:36:35.163Z,1.50
2022-10-24T23:42:06.546Z,1.75
2022-10-24T23:44:52.055Z,1.60
2022-10-24T23:48:11.454Z,1.90
2022-10-24T23:51:07.951Z,2.15
2022-10-24T23:53:57.299Z,2.42
2022-10-24T23:56:42.811Z,2.55
2022-10-24T23:59:28.911Z,2.67
